sensor_id;sensor_type;location;lat;lon;timestamp;P1;durP1;ratioP1;P2;durP2;ratioP2
38034;SDS011;23841;48.524;1.342;2022-09-29T00:01:06;3.25;;;1.85;;
38034;SDS011;23841;48.524;1.342;2022-09-29T00:03:31;5.70;;;3.13;;
38034;SDS011;23841;48.524;1.342;2022-09-29T00:05:56;4.82;;;1.70;;
38034;SDS011;23841;48.524;1.342;2022-09-29T00:08:23;4.68;;;1.70;;
38034;SDS011;23841;48.524;1.342;2022-09-29T00:10:49;4.55;;;1.63;;
38034;SDS011;23841;48.524;1.342;2022-09-29T00:13:15;3.53;;;1.75;;
38034;SDS011;23841;48.524;1.342;2022-09-29T00:15:40;3.13;;;1.40;;
38034;SDS011;23841;48.524;1.342;2022-09-29T00:18:06;3.83;;;1.80;;
38034;SDS011;23841;48.524;1.342;2022-09-29T00:20:33;4.07;;;1.60;;
38034;SDS011;23841;48.524;1.342;2022-09-29T00:22:58;4.57;;;1.52;;
38034;SDS011;23841;48.524;1.342;2022-09-29T00:25:24;4.22;;;2.30;;
38034;SDS011;23841;48.524;1.342;2022-09-29T00:27:49;3.70;;;1.50;;
38034;SDS011;23841;48.524;1.342;2022-09-29T00:30:14;4.82;;;1.63;;
38034;SDS011;23841;48.524;1.342;2022-09-29T00:32:40;5.15;;;1.50;;
38034;SDS011;23841;48.524;1.342;2022-09-29T00:35:05;3.47;;;1.80;;
38034;SDS011;23841;48.524;1.342;2022-09-29T00:37:32;4.55;;;1.63;;
38034;SDS011;23841;48.524;1.342;2022-09-29T00:39:57;3.25;;;1.42;;
38034;SDS011;23841;48.524;1.342;2022-09-29T00:42:23;3.72;;;1.60;;
38034;SDS011;23841;48.524;1.342;2022-09-29T00:44:53;3.75;;;1.50;;
38034;SDS011;23841;48.524;1.342;2022-09-29T00:47:19;3.88;;;1.55;;
38034;SDS011;23841;48.524;1.342;2022-09-29T00:54:41;4.28;;;1.70;;
38034;SDS011;23841;48.524;1.342;2022-09-29T00:57:08;4.60;;;1.52;;
38034;SDS011;23841;48.524;1.342;2022-09-29T01:02:16;6.53;;;1.80;;
38034;SDS011;23841;48.524;1.342;2022-09-29T01:04:42;7.10;;;2.88;;
38034;SDS011;23841;48.524;1.342;2022-09-29T01:07:08;3.72;;;1.70;;
38034;SDS011;23841;48.524;1.342;2022-09-29T01:09:35;3.38;;;1.98;;
38034;SDS011;23841;48.524;1.342;2022-09-29T01:12:02;3.13;;;1.73;;
38034;SDS011;23841;48.524;1.342;2022-09-29T01:14:28;5.07;;;1.67;;
38034;SDS011;23841;48.524;1.342;2022-09-29T01:16:56;3.10;;;1.67;;
38034;SDS011;23841;48.524;1.342;2022-09-29T01:27:22;3.47;;;1.98;;
38034;SDS011;23841;48.524;1.342;2022-09-29T01:30:11;5.05;;;2.33;;
38034;SDS011;23841;48.524;1.342;2022-09-29T01:35:21;5.25;;;2.10;;
38034;SDS011;23841;48.524;1.342;2022-09-29T01:37:57;5.85;;;2.05;;
38034;SDS011;23841;48.524;1.342;2022-09-29T01:43:08;6.25;;;2.70;;
38034;SDS011;23841;48.524;1.342;2022-09-29T01:45:58;4.38;;;2.60;;
38034;SDS011;23841;48.524;1.342;2022-09-29T01:48:24;4.82;;;2.50;;
38034;SDS011;23841;48.524;1.342;2022-09-29T01:50:52;5.55;;;2.80;;
38034;SDS011;23841;48.524;1.342;2022-09-29T01:53:41;4.25;;;2.25;;
38034;SDS011;23841;48.524;1.342;2022-09-29T01:56:15;4.80;;;2.53;;
38034;SDS011;23841;48.524;1.342;2022-09-29T01:58:46;5.53;;;2.35;;
38034;SDS011;23841;48.524;1.342;2022-09-29T02:01:15;6.60;;;2.60;;
38034;SDS011;23841;48.524;1.342;2022-09-29T02:03:56;5.10;;;2.70;;
38034;SDS011;23841;48.524;1.342;2022-09-29T02:06:23;6.57;;;2.35;;
38034;SDS011;23841;48.524;1.342;2022-09-29T02:08:51;5.75;;;2.90;;
38034;SDS011;23841;48.524;1.342;2022-09-29T02:11:17;5.68;;;2.17;;
38034;SDS011;23841;48.524;1.342;2022-09-29T02:14:00;7.18;;;2.80;;
38034;SDS011;23841;48.524;1.342;2022-09-29T02:16:31;6.18;;;3.13;;
38034;SDS011;23841;48.524;1.342;2022-09-29T02:21:28;4.38;;;2.60;;
38034;SDS011;23841;48.524;1.342;2022-09-29T02:23:54;5.00;;;2.20;;
38034;SDS011;23841;48.524;1.342;2022-09-29T02:26:22;4.32;;;2.42;;
38034;SDS011;23841;48.524;1.342;2022-09-29T02:28:48;6.35;;;3.22;;
38034;SDS011;23841;48.524;1.342;2022-09-29T02:31:14;6.75;;;2.58;;
38034;SDS011;23841;48.524;1.342;2022-09-29T02:33:41;7.78;;;3.75;;
38034;SDS011;23841;48.524;1.342;2022-09-29T02:38:52;7.00;;;3.30;;
38034;SDS011;23841;48.524;1.342;2022-09-29T02:51:30;7.07;;;3.22;;
38034;SDS011;23841;48.524;1.342;2022-09-29T03:01:38;6.10;;;3.42;;
38034;SDS011;23841;48.524;1.342;2022-09-29T03:04:04;6.07;;;3.60;;
38034;SDS011;23841;48.524;1.342;2022-09-29T03:06:32;5.20;;;2.97;;
38034;SDS011;23841;48.524;1.342;2022-09-29T03:08:59;6.15;;;3.50;;
38034;SDS011;23841;48.524;1.342;2022-09-29T03:11:24;8.07;;;4.00;;
38034;SDS011;23841;48.524;1.342;2022-09-29T03:13:50;5.28;;;2.95;;
38034;SDS011;23841;48.524;1.342;2022-09-29T03:16:16;5.32;;;2.95;;
38034;SDS011;23841;48.524;1.342;2022-09-29T03:18:43;9.07;;;3.40;;
38034;SDS011;23841;48.524;1.342;2022-09-29T03:21:08;6.57;;;2.95;;
38034;SDS011;23841;48.524;1.342;2022-09-29T03:23:35;7.75;;;2.95;;
38034;SDS011;23841;48.524;1.342;2022-09-29T03:26:01;7.78;;;2.80;;
38034;SDS011;23841;48.524;1.342;2022-09-29T03:28:26;6.13;;;2.50;;
38034;SDS011;23841;48.524;1.342;2022-09-29T03:30:52;5.57;;;2.30;;
38034;SDS011;23841;48.524;1.342;2022-09-29T03:33:19;7.15;;;2.60;;
38034;SDS011;23841;48.524;1.342;2022-09-29T03:35:45;4.43;;;2.40;;
38034;SDS011;23841;48.524;1.342;2022-09-29T03:38:11;5.57;;;2.60;;
38034;SDS011;23841;48.524;1.342;2022-09-29T03:40:36;7.38;;;3.28;;
38034;SDS011;23841;48.524;1.342;2022-09-29T03:43:02;4.78;;;2.25;;
38034;SDS011;23841;48.524;1.342;2022-09-29T03:45:28;4.45;;;1.92;;
38034;SDS011;23841;48.524;1.342;2022-09-29T03:47:54;6.32;;;2.67;;
38034;SDS011;23841;48.524;1.342;2022-09-29T03:50:23;5.70;;;2.22;;
38034;SDS011;23841;48.524;1.342;2022-09-29T03:52:48;3.95;;;2.10;;
38034;SDS011;23841;48.524;1.342;2022-09-29T03:55:14;5.60;;;2.00;;
38034;SDS011;23841;48.524;1.342;2022-09-29T03:57:39;4.43;;;2.10;;
38034;SDS011;23841;48.524;1.342;2022-09-29T04:00:06;6.82;;;2.38;;
38034;SDS011;23841;48.524;1.342;2022-09-29T04:02:32;3.55;;;1.98;;
38034;SDS011;23841;48.524;1.342;2022-09-29T04:05:01;4.72;;;2.35;;
38034;SDS011;23841;48.524;1.342;2022-09-29T04:07:26;3.25;;;1.80;;
38034;SDS011;23841;48.524;1.342;2022-09-29T04:09:52;3.60;;;1.80;;
38034;SDS011;23841;48.524;1.342;2022-09-29T04:12:17;5.93;;;1.83;;
38034;SDS011;23841;48.524;1.342;2022-09-29T04:14:43;3.17;;;1.52;;
38034;SDS011;23841;48.524;1.342;2022-09-29T04:17:09;3.90;;;1.90;;
38034;SDS011;23841;48.524;1.342;2022-09-29T04:19:35;2.55;;;1.40;;
38034;SDS011;23841;48.524;1.342;2022-09-29T04:22:01;4.28;;;2.17;;
38034;SDS011;23841;48.524;1.342;2022-09-29T04:24:28;3.67;;;1.55;;
38034;SDS011;23841;48.524;1.342;2022-09-29T04:26:54;3.55;;;1.55;;
38034;SDS011;23841;48.524;1.342;2022-09-29T04:29:20;4.75;;;2.05;;
38034;SDS011;23841;48.524;1.342;2022-09-29T04:31:46;4.32;;;1.42;;
38034;SDS011;23841;48.524;1.342;2022-09-29T04:34:17;3.03;;;1.30;;
38034;SDS011;23841;48.524;1.342;2022-09-29T04:36:43;2.92;;;1.33;;
38034;SDS011;23841;48.524;1.342;2022-09-29T04:39:09;3.88;;;1.55;;
38034;SDS011;23841;48.524;1.342;2022-09-29T04:41:37;2.60;;;1.27;;
38034;SDS011;23841;48.524;1.342;2022-09-29T04:44:03;4.85;;;1.58;;
38034;SDS011;23841;48.524;1.342;2022-09-29T04:46:30;3.35;;;1.20;;
38034;SDS011;23841;48.524;1.342;2022-09-29T04:48:55;4.78;;;1.20;;
38034;SDS011;23841;48.524;1.342;2022-09-29T04:51:25;3.58;;;1.63;;
38034;SDS011;23841;48.524;1.342;2022-09-29T04:53:52;2.67;;;1.08;;
38034;SDS011;23841;48.524;1.342;2022-09-29T04:56:18;3.22;;;1.30;;
38034;SDS011;23841;48.524;1.342;2022-09-29T04:58:45;1.63;;;0.90;;
38034;SDS011;23841;48.524;1.342;2022-09-29T05:01:11;3.08;;;1.20;;
38034;SDS011;23841;48.524;1.342;2022-09-29T05:03:41;2.47;;;1.00;;
38034;SDS011;23841;48.524;1.342;2022-09-29T05:06:07;3.35;;;1.27;;
38034;SDS011;23841;48.524;1.342;2022-09-29T05:08:34;3.70;;;1.10;;
38034;SDS011;23841;48.524;1.342;2022-09-29T05:11:06;1.58;;;1.00;;
38034;SDS011;23841;48.524;1.342;2022-09-29T05:13:32;2.47;;;1.17;;
38034;SDS011;23841;48.524;1.342;2022-09-29T05:15:58;3.95;;;1.20;;
38034;SDS011;23841;48.524;1.342;2022-09-29T05:18:24;2.17;;;1.08;;
38034;SDS011;23841;48.524;1.342;2022-09-29T05:20:51;2.72;;;1.08;;
38034;SDS011;23841;48.524;1.342;2022-09-29T05:23:19;2.90;;;0.98;;
38034;SDS011;23841;48.524;1.342;2022-09-29T05:25:45;2.90;;;1.20;;
38034;SDS011;23841;48.524;1.342;2022-09-29T05:28:11;1.67;;;0.85;;
38034;SDS011;23841;48.524;1.342;2022-09-29T05:30:39;2.72;;;0.90;;
38034;SDS011;23841;48.524;1.342;2022-09-29T05:33:06;3.08;;;1.00;;
38034;SDS011;23841;48.524;1.342;2022-09-29T05:35:32;2.20;;;1.10;;
38034;SDS011;23841;48.524;1.342;2022-09-29T05:37:58;3.65;;;1.20;;
38034;SDS011;23841;48.524;1.342;2022-09-29T05:40:23;2.30;;;1.13;;
38034;SDS011;23841;48.524;1.342;2022-09-29T05:42:49;2.15;;;0.90;;
38034;SDS011;23841;48.524;1.342;2022-09-29T05:45:15;2.10;;;0.90;;
38034;SDS011;23841;48.524;1.342;2022-09-29T05:47:41;2.75;;;1.00;;
38034;SDS011;23841;48.524;1.342;2022-09-29T05:50:07;4.10;;;1.05;;
38034;SDS011;23841;48.524;1.342;2022-09-29T05:52:36;3.03;;;1.55;;
38034;SDS011;23841;48.524;1.342;2022-09-29T05:55:02;2.10;;;1.00;;
38034;SDS011;23841;48.524;1.342;2022-09-29T05:57:28;2.53;;;0.95;;
38034;SDS011;23841;48.524;1.342;2022-09-29T05:59:54;2.53;;;1.15;;
38034;SDS011;23841;48.524;1.342;2022-09-29T06:02:23;2.53;;;0.85;;
38034;SDS011;23841;48.524;1.342;2022-09-29T06:04:49;2.05;;;0.80;;
38034;SDS011;23841;48.524;1.342;2022-09-29T06:07:15;2.20;;;1.08;;
38034;SDS011;23841;48.524;1.342;2022-09-29T06:09:40;3.00;;;0.90;;
38034;SDS011;23841;48.524;1.342;2022-09-29T06:12:06;4.10;;;1.35;;
38034;SDS011;23841;48.524;1.342;2022-09-29T06:14:31;3.20;;;0.82;;
38034;SDS011;23841;48.524;1.342;2022-09-29T06:16:57;1.25;;;0.70;;
38034;SDS011;23841;48.524;1.342;2022-09-29T06:19:22;2.53;;;1.00;;
38034;SDS011;23841;48.524;1.342;2022-09-29T06:21:50;1.92;;;1.05;;
38034;SDS011;23841;48.524;1.342;2022-09-29T06:24:16;2.65;;;1.13;;
38034;SDS011;23841;48.524;1.342;2022-09-29T06:26:43;2.78;;;0.88;;
38034;SDS011;23841;48.524;1.342;2022-09-29T06:29:08;3.40;;;0.70;;
38034;SDS011;23841;48.524;1.342;2022-09-29T06:31:34;1.55;;;0.80;;
38034;SDS011;23841;48.524;1.342;2022-09-29T06:34:03;1.73;;;0.90;;
38034;SDS011;23841;48.524;1.342;2022-09-29T06:36:38;2.72;;;1.05;;
38034;SDS011;23841;48.524;1.342;2022-09-29T06:39:22;1.75;;;0.82;;
38034;SDS011;23841;48.524;1.342;2022-09-29T06:41:51;3.08;;;0.80;;
38034;SDS011;23841;48.524;1.342;2022-09-29T06:44:23;1.52;;;0.70;;
38034;SDS011;23841;48.524;1.342;2022-09-29T06:46:50;1.95;;;1.00;;
38034;SDS011;23841;48.524;1.342;2022-09-29T06:49:17;1.70;;;0.80;;
38034;SDS011;23841;48.524;1.342;2022-09-29T06:51:43;1.10;;;0.60;;
38034;SDS011;23841;48.524;1.342;2022-09-29T06:54:12;3.33;;;0.90;;
38034;SDS011;23841;48.524;1.342;2022-09-29T06:56:39;1.85;;;0.80;;
38034;SDS011;23841;48.524;1.342;2022-09-29T06:59:04;2.05;;;0.80;;
38034;SDS011;23841;48.524;1.342;2022-09-29T07:01:30;1.80;;;1.00;;
38034;SDS011;23841;48.524;1.342;2022-09-29T07:03:56;2.30;;;1.00;;
38034;SDS011;23841;48.524;1.342;2022-09-29T07:06:23;2.88;;;1.45;;
38034;SDS011;23841;48.524;1.342;2022-09-29T07:08:52;3.53;;;1.38;;
38034;SDS011;23841;48.524;1.342;2022-09-29T07:11:18;3.10;;;1.15;;
38034;SDS011;23841;48.524;1.342;2022-09-29T07:13:45;3.15;;;1.08;;
38034;SDS011;23841;48.524;1.342;2022-09-29T07:16:12;3.45;;;1.48;;
38034;SDS011;23841;48.524;1.342;2022-09-29T07:18:39;1.80;;;0.90;;
38034;SDS011;23841;48.524;1.342;2022-09-29T07:21:05;2.55;;;0.90;;
38034;SDS011;23841;48.524;1.342;2022-09-29T07:23:31;1.15;;;0.68;;
38034;SDS011;23841;48.524;1.342;2022-09-29T07:25:57;4.90;;;1.02;;
38034;SDS011;23841;48.524;1.342;2022-09-29T07:28:26;3.72;;;1.10;;
38034;SDS011;23841;48.524;1.342;2022-09-29T07:30:59;3.17;;;0.98;;
38034;SDS011;23841;48.524;1.342;2022-09-29T07:33:24;3.42;;;1.33;;
38034;SDS011;23841;48.524;1.342;2022-09-29T07:35:53;2.58;;;0.80;;
38034;SDS011;23841;48.524;1.342;2022-09-29T07:38:19;3.63;;;1.08;;
38034;SDS011;23841;48.524;1.342;2022-09-29T07:40:46;2.05;;;0.85;;
38034;SDS011;23841;48.524;1.342;2022-09-29T07:43:12;2.58;;;0.85;;
38034;SDS011;23841;48.524;1.342;2022-09-29T07:45:37;4.53;;;0.98;;
38034;SDS011;23841;48.524;1.342;2022-09-29T07:48:04;1.70;;;0.73;;
38034;SDS011;23841;48.524;1.342;2022-09-29T07:50:30;3.33;;;1.45;;
38034;SDS011;23841;48.524;1.342;2022-09-29T07:52:55;3.10;;;0.88;;
38034;SDS011;23841;48.524;1.342;2022-09-29T07:55:23;2.78;;;1.00;;
38034;SDS011;23841;48.524;1.342;2022-09-29T07:57:50;4.65;;;1.15;;
38034;SDS011;23841;48.524;1.342;2022-09-29T08:00:16;2.13;;;0.90;;
38034;SDS011;23841;48.524;1.342;2022-09-29T08:02:41;4.38;;;1.27;;
38034;SDS011;23841;48.524;1.342;2022-09-29T08:05:07;3.20;;;1.17;;
38034;SDS011;23841;48.524;1.342;2022-09-29T08:07:36;5.93;;;1.35;;
38034;SDS011;23841;48.524;1.342;2022-09-29T08:10:01;2.15;;;1.08;;
38034;SDS011;23841;48.524;1.342;2022-09-29T08:12:28;2.63;;;1.08;;
38034;SDS011;23841;48.524;1.342;2022-09-29T08:14:53;2.97;;;1.27;;
38034;SDS011;23841;48.524;1.342;2022-09-29T08:17:19;2.22;;;1.05;;
38034;SDS011;23841;48.524;1.342;2022-09-29T08:19:44;1.42;;;0.80;;
38034;SDS011;23841;48.524;1.342;2022-09-29T08:22:10;2.85;;;1.00;;
38034;SDS011;23841;48.524;1.342;2022-09-29T08:24:35;3.30;;;1.20;;
38034;SDS011;23841;48.524;1.342;2022-09-29T08:27:01;1.88;;;0.98;;
38034;SDS011;23841;48.524;1.342;2022-09-29T08:29:31;2.38;;;1.05;;
38034;SDS011;23841;48.524;1.342;2022-09-29T08:31:56;4.45;;;0.90;;
38034;SDS011;23841;48.524;1.342;2022-09-29T08:34:22;6.22;;;1.48;;
38034;SDS011;23841;48.524;1.342;2022-09-29T08:36:47;2.08;;;0.90;;
38034;SDS011;23841;48.524;1.342;2022-09-29T08:39:13;2.95;;;0.90;;
38034;SDS011;23841;48.524;1.342;2022-09-29T08:44:36;3.00;;;1.02;;
38034;SDS011;23841;48.524;1.342;2022-09-29T08:47:10;2.33;;;0.77;;
38034;SDS011;23841;48.524;1.342;2022-09-29T08:49:38;3.05;;;1.38;;
38034;SDS011;23841;48.524;1.342;2022-09-29T08:52:10;1.95;;;0.98;;
38034;SDS011;23841;48.524;1.342;2022-09-29T08:54:38;2.47;;;0.95;;
38034;SDS011;23841;48.524;1.342;2022-09-29T08:57:04;3.78;;;1.05;;
38034;SDS011;23841;48.524;1.342;2022-09-29T08:59:31;2.85;;;1.00;;
38034;SDS011;23841;48.524;1.342;2022-09-29T09:09:57;3.22;;;0.80;;
38034;SDS011;23841;48.524;1.342;2022-09-29T09:20:17;1.80;;;0.50;;
38034;SDS011;23841;48.524;1.342;2022-09-29T09:27:38;2.30;;;0.88;;
38034;SDS011;23841;48.524;1.342;2022-09-29T09:30:39;1.45;;;0.73;;
38034;SDS011;23841;48.524;1.342;2022-09-29T09:32:57;1.38;;;0.90;;
38034;SDS011;23841;48.524;1.342;2022-09-29T09:37:50;1.40;;;0.85;;
38034;SDS011;23841;48.524;1.342;2022-09-29T09:40:27;1.85;;;0.80;;
38034;SDS011;23841;48.524;1.342;2022-09-29T09:43:02;2.10;;;0.90;;
38034;SDS011;23841;48.524;1.342;2022-09-29T09:45:32;1.75;;;0.80;;
38034;SDS011;23841;48.524;1.342;2022-09-29T09:48:04;2.85;;;0.82;;
38034;SDS011;23841;48.524;1.342;2022-09-29T09:50:37;2.10;;;0.80;;
38034;SDS011;23841;48.524;1.342;2022-09-29T09:53:04;1.88;;;0.70;;
38034;SDS011;23841;48.524;1.342;2022-09-29T09:55:34;1.80;;;0.95;;
38034;SDS011;23841;48.524;1.342;2022-09-29T10:03:00;1.60;;;0.80;;
38034;SDS011;23841;48.524;1.342;2022-09-29T10:05:35;1.23;;;0.65;;
38034;SDS011;23841;48.524;1.342;2022-09-29T10:10:48;2.20;;;0.80;;
38034;SDS011;23841;48.524;1.342;2022-09-29T10:13:14;1.10;;;0.63;;
38034;SDS011;23841;48.524;1.342;2022-09-29T10:15:42;1.67;;;0.82;;
38034;SDS011;23841;48.524;1.342;2022-09-29T10:18:15;1.67;;;0.63;;
38034;SDS011;23841;48.524;1.342;2022-09-29T10:20:41;3.13;;;0.93;;
38034;SDS011;23841;48.524;1.342;2022-09-29T10:25:49;2.50;;;0.70;;
38034;SDS011;23841;48.524;1.342;2022-09-29T10:28:15;1.08;;;0.52;;
38034;SDS011;23841;48.524;1.342;2022-09-29T10:30:41;2.50;;;0.90;;
38034;SDS011;23841;48.524;1.342;2022-09-29T10:33:09;0.88;;;0.50;;
38034;SDS011;23841;48.524;1.342;2022-09-29T10:35:38;0.98;;;0.47;;
38034;SDS011;23841;48.524;1.342;2022-09-29T10:38:05;1.90;;;0.40;;
38034;SDS011;23841;48.524;1.342;2022-09-29T10:40:32;1.52;;;0.80;;
38034;SDS011;23841;48.524;1.342;2022-09-29T10:42:58;0.82;;;0.50;;
38034;SDS011;23841;48.524;1.342;2022-09-29T10:45:35;1.40;;;0.70;;
38034;SDS011;23841;48.524;1.342;2022-09-29T10:48:12;1.30;;;0.80;;
38034;SDS011;23841;48.524;1.342;2022-09-29T10:50:51;0.75;;;0.50;;
38034;SDS011;23841;48.524;1.342;2022-09-29T10:55:47;3.75;;;0.77;;
38034;SDS011;23841;48.524;1.342;2022-09-29T10:58:26;1.58;;;0.60;;
38034;SDS011;23841;48.524;1.342;2022-09-29T11:03:39;1.40;;;0.70;;
38034;SDS011;23841;48.524;1.342;2022-09-29T11:06:10;1.45;;;0.73;;
38034;SDS011;23841;48.524;1.342;2022-09-29T11:09:38;1.85;;;0.70;;
38034;SDS011;23841;48.524;1.342;2022-09-29T11:13:57;4.00;;;0.60;;
38034;SDS011;23841;48.524;1.342;2022-09-29T11:18:49;3.90;;;1.60;;
38034;SDS011;23841;48.524;1.342;2022-09-29T11:23:50;15.80;;;1.58;;
38034;SDS011;23841;48.524;1.342;2022-09-29T11:26:21;7.97;;;1.52;;
38034;SDS011;23841;48.524;1.342;2022-09-29T11:49:06;7.25;;;1.85;;
38034;SDS011;23841;48.524;1.342;2022-09-29T11:56:54;5.03;;;1.13;;
38034;SDS011;23841;48.524;1.342;2022-09-29T12:04:49;4.13;;;1.25;;
38034;SDS011;23841;48.524;1.342;2022-09-29T12:07:32;4.10;;;1.37;;
38034;SDS011;23841;48.524;1.342;2022-09-29T12:12:40;3.70;;;1.38;;
38034;SDS011;23841;48.524;1.342;2022-09-29T12:17:41;2.53;;;0.90;;
38034;SDS011;23841;48.524;1.342;2022-09-29T12:20:27;4.18;;;1.83;;
38034;SDS011;23841;48.524;1.342;2022-09-29T12:22:55;3.67;;;1.63;;
38034;SDS011;23841;48.524;1.342;2022-09-29T12:25:23;2.95;;;1.17;;
38034;SDS011;23841;48.524;1.342;2022-09-29T12:27:49;2.58;;;1.10;;
38034;SDS011;23841;48.524;1.342;2022-09-29T12:30:26;8.95;;;4.50;;
38034;SDS011;23841;48.524;1.342;2022-09-29T12:38:00;22.35;;;10.23;;
38034;SDS011;23841;48.524;1.342;2022-09-29T12:40:38;38.55;;;20.52;;
38034;SDS011;23841;48.524;1.342;2022-09-29T12:45:47;50.22;;;27.45;;
38034;SDS011;23841;48.524;1.342;2022-09-29T12:48:23;58.35;;;30.88;;
38034;SDS011;23841;48.524;1.342;2022-09-29T12:50:53;50.88;;;26.38;;
38034;SDS011;23841;48.524;1.342;2022-09-29T12:53:23;43.75;;;24.20;;
38034;SDS011;23841;48.524;1.342;2022-09-29T12:55:57;51.30;;;26.90;;
38034;SDS011;23841;48.524;1.342;2022-09-29T13:00:54;60.10;;;34.17;;
38034;SDS011;23841;48.524;1.342;2022-09-29T13:03:36;58.17;;;30.52;;
38034;SDS011;23841;48.524;1.342;2022-09-29T13:06:12;57.70;;;32.28;;
38034;SDS011;23841;48.524;1.342;2022-09-29T13:14:00;57.38;;;29.08;;
38034;SDS011;23841;48.524;1.342;2022-09-29T13:22:48;48.58;;;25.52;;
38034;SDS011;23841;48.524;1.342;2022-09-29T13:32:20;49.63;;;26.95;;
38034;SDS011;23841;48.524;1.342;2022-09-29T13:34:47;44.88;;;24.08;;
38034;SDS011;23841;48.524;1.342;2022-09-29T13:37:15;36.20;;;20.95;;
38034;SDS011;23841;48.524;1.342;2022-09-29T13:39:42;35.15;;;19.40;;
38034;SDS011;23841;48.524;1.342;2022-09-29T13:47:35;29.65;;;16.05;;
38034;SDS011;23841;48.524;1.342;2022-09-29T13:52:53;20.25;;;11.15;;
38034;SDS011;23841;48.524;1.342;2022-09-29T13:58:22;19.73;;;10.15;;
38034;SDS011;23841;48.524;1.342;2022-09-29T14:00:48;19.55;;;9.48;;
38034;SDS011;23841;48.524;1.342;2022-09-29T14:05:52;14.80;;;8.37;;
38034;SDS011;23841;48.524;1.342;2022-09-29T14:08:24;14.07;;;6.93;;
38034;SDS011;23841;48.524;1.342;2022-09-29T14:11:02;12.00;;;6.45;;
38034;SDS011;23841;48.524;1.342;2022-09-29T14:13:30;10.00;;;5.85;;
38034;SDS011;23841;48.524;1.342;2022-09-29T14:16:04;9.98;;;4.90;;
38034;SDS011;23841;48.524;1.342;2022-09-29T14:21:02;9.85;;;5.15;;
38034;SDS011;23841;48.524;1.342;2022-09-29T14:28:53;8.68;;;4.63;;
38034;SDS011;23841;48.524;1.342;2022-09-29T14:31:20;7.60;;;4.05;;
38034;SDS011;23841;48.524;1.342;2022-09-29T14:33:47;7.25;;;4.00;;
38034;SDS011;23841;48.524;1.342;2022-09-29T14:36:15;8.20;;;4.32;;
38034;SDS011;23841;48.524;1.342;2022-09-29T14:38:43;7.97;;;4.00;;
38034;SDS011;23841;48.524;1.342;2022-09-29T14:43:45;6.53;;;3.40;;
38034;SDS011;23841;48.524;1.342;2022-09-29T14:54:40;7.55;;;3.05;;
38034;SDS011;23841;48.524;1.342;2022-09-29T15:04:48;4.30;;;2.47;;
38034;SDS011;23841;48.524;1.342;2022-09-29T15:07:14;4.68;;;2.20;;
38034;SDS011;23841;48.524;1.342;2022-09-29T15:09:44;4.93;;;2.40;;
38034;SDS011;23841;48.524;1.342;2022-09-29T15:12:13;4.30;;;2.20;;
38034;SDS011;23841;48.524;1.342;2022-09-29T15:14:42;3.88;;;2.03;;
38034;SDS011;23841;48.524;1.342;2022-09-29T15:19:59;3.80;;;1.80;;
38034;SDS011;23841;48.524;1.342;2022-09-29T15:30:40;3.15;;;1.40;;
38034;SDS011;23841;48.524;1.342;2022-09-29T15:33:20;3.17;;;1.50;;
38034;SDS011;23841;48.524;1.342;2022-09-29T15:35:55;1.95;;;1.02;;
38034;SDS011;23841;48.524;1.342;2022-09-29T15:38:27;1.73;;;1.08;;
38034;SDS011;23841;48.524;1.342;2022-09-29T15:40:59;2.58;;;0.90;;
38034;SDS011;23841;48.524;1.342;2022-09-29T15:43:26;2.88;;;0.90;;
38034;SDS011;23841;48.524;1.342;2022-09-29T15:45:57;2.88;;;0.98;;
38034;SDS011;23841;48.524;1.342;2022-09-29T15:48:24;2.42;;;1.10;;
38034;SDS011;23841;48.524;1.342;2022-09-29T15:50:50;3.33;;;1.20;;
38034;SDS011;23841;48.524;1.342;2022-09-29T15:53:20;1.98;;;1.20;;
38034;SDS011;23841;48.524;1.342;2022-09-29T15:55:46;2.38;;;0.80;;
38034;SDS011;23841;48.524;1.342;2022-09-29T15:58:34;1.88;;;0.85;;
38034;SDS011;23841;48.524;1.342;2022-09-29T16:00:58;1.60;;;0.80;;
38034;SDS011;23841;48.524;1.342;2022-09-29T16:03:43;1.98;;;1.10;;
38034;SDS011;23841;48.524;1.342;2022-09-29T16:06:27;2.45;;;0.90;;
38034;SDS011;23841;48.524;1.342;2022-09-29T16:08:54;1.52;;;0.70;;
38034;SDS011;23841;48.524;1.342;2022-09-29T16:11:21;1.90;;;0.85;;
38034;SDS011;23841;48.524;1.342;2022-09-29T16:13:48;2.22;;;0.98;;
38034;SDS011;23841;48.524;1.342;2022-09-29T16:16:14;1.77;;;1.02;;
38034;SDS011;23841;48.524;1.342;2022-09-29T16:18:47;2.22;;;1.00;;
38034;SDS011;23841;48.524;1.342;2022-09-29T16:21:15;5.45;;;1.30;;
38034;SDS011;23841;48.524;1.342;2022-09-29T16:26:12;5.80;;;1.27;;
38034;SDS011;23841;48.524;1.342;2022-09-29T16:28:40;3.85;;;0.88;;
38034;SDS011;23841;48.524;1.342;2022-09-29T16:31:21;2.95;;;1.17;;
38034;SDS011;23841;48.524;1.342;2022-09-29T16:33:51;5.50;;;1.10;;
38034;SDS011;23841;48.524;1.342;2022-09-29T16:36:19;3.50;;;0.98;;
38034;SDS011;23841;48.524;1.342;2022-09-29T16:38:46;3.55;;;1.10;;
38034;SDS011;23841;48.524;1.342;2022-09-29T16:41:25;4.63;;;0.85;;
38034;SDS011;23841;48.524;1.342;2022-09-29T16:46:23;3.27;;;1.10;;
38034;SDS011;23841;48.524;1.342;2022-09-29T16:48:49;3.97;;;1.10;;
38034;SDS011;23841;48.524;1.342;2022-09-29T16:51:15;11.20;;;2.88;;
38034;SDS011;23841;48.524;1.342;2022-09-29T16:53:41;4.60;;;0.90;;
38034;SDS011;23841;48.524;1.342;2022-09-29T16:56:15;1.63;;;0.80;;
38034;SDS011;23841;48.524;1.342;2022-09-29T16:58:44;4.07;;;0.90;;
38034;SDS011;23841;48.524;1.342;2022-09-29T17:01:10;3.47;;;0.80;;
38034;SDS011;23841;48.524;1.342;2022-09-29T17:03:37;2.67;;;0.55;;
38034;SDS011;23841;48.524;1.342;2022-09-29T17:06:03;4.82;;;1.00;;
38034;SDS011;23841;48.524;1.342;2022-09-29T17:08:29;2.63;;;0.90;;
38034;SDS011;23841;48.524;1.342;2022-09-29T17:10:56;1.52;;;0.60;;
38034;SDS011;23841;48.524;1.342;2022-09-29T17:13:23;2.22;;;0.98;;
38034;SDS011;23841;48.524;1.342;2022-09-29T17:15:51;1.58;;;1.00;;
38034;SDS011;23841;48.524;1.342;2022-09-29T17:18:18;2.13;;;0.77;;
38034;SDS011;23841;48.524;1.342;2022-09-29T17:20:44;4.32;;;0.80;;
38034;SDS011;23841;48.524;1.342;2022-09-29T17:23:09;1.98;;;0.80;;
38034;SDS011;23841;48.524;1.342;2022-09-29T17:25:35;2.35;;;0.75;;
38034;SDS011;23841;48.524;1.342;2022-09-29T17:28:02;1.67;;;0.60;;
38034;SDS011;23841;48.524;1.342;2022-09-29T17:30:40;2.72;;;1.02;;
38034;SDS011;23841;48.524;1.342;2022-09-29T17:33:06;1.75;;;0.70;;
38034;SDS011;23841;48.524;1.342;2022-09-29T17:35:34;1.27;;;0.50;;
38034;SDS011;23841;48.524;1.342;2022-09-29T17:38:01;2.60;;;0.90;;
38034;SDS011;23841;48.524;1.342;2022-09-29T17:40:31;2.45;;;0.73;;
38034;SDS011;23841;48.524;1.342;2022-09-29T17:42:57;2.08;;;0.70;;
38034;SDS011;23841;48.524;1.342;2022-09-29T17:45:25;1.58;;;0.60;;
38034;SDS011;23841;48.524;1.342;2022-09-29T17:47:51;2.38;;;0.90;;
38034;SDS011;23841;48.524;1.342;2022-09-29T17:52:51;1.58;;;0.90;;
38034;SDS011;23841;48.524;1.342;2022-09-29T17:55:16;1.77;;;0.80;;
38034;SDS011;23841;48.524;1.342;2022-09-29T17:57:43;1.90;;;0.50;;
38034;SDS011;23841;48.524;1.342;2022-09-29T18:00:14;1.33;;;0.80;;
38034;SDS011;23841;48.524;1.342;2022-09-29T18:02:39;1.30;;;0.60;;
38034;SDS011;23841;48.524;1.342;2022-09-29T18:05:04;1.52;;;0.60;;
38034;SDS011;23841;48.524;1.342;2022-09-29T18:07:30;0.90;;;0.55;;
38034;SDS011;23841;48.524;1.342;2022-09-29T18:09:56;1.35;;;0.80;;
38034;SDS011;23841;48.524;1.342;2022-09-29T18:12:21;2.03;;;0.60;;
38034;SDS011;23841;48.524;1.342;2022-09-29T18:14:47;1.67;;;0.80;;
38034;SDS011;23841;48.524;1.342;2022-09-29T18:17:12;4.50;;;1.38;;
38034;SDS011;23841;48.524;1.342;2022-09-29T18:19:37;1.67;;;0.80;;
38034;SDS011;23841;48.524;1.342;2022-09-29T18:22:04;1.42;;;0.70;;
38034;SDS011;23841;48.524;1.342;2022-09-29T18:24:31;1.48;;;0.70;;
38034;SDS011;23841;48.524;1.342;2022-09-29T18:26:57;2.38;;;0.95;;
38034;SDS011;23841;48.524;1.342;2022-09-29T18:29:22;1.95;;;0.70;;